sensor_id;sensor_type;location;lat;lon;timestamp;P1;durP1;ratioP1;P2;durP2;ratioP2
50393;SDS011;36308;46.312;25.288;2023-05-07T00:00:45;6.30;;;3.65;;
50393;SDS011;36308;46.312;25.288;2023-05-07T00:03:11;5.90;;;3.65;;
50393;SDS011;36308;46.312;25.288;2023-05-07T00:05:38;6.30;;;3.47;;
50393;SDS011;36308;46.312;25.288;2023-05-07T00:08:04;6.43;;;3.38;;
50393;SDS011;36308;46.312;25.288;2023-05-07T00:13:33;6.90;;;3.20;;
50393;SDS011;36308;46.312;25.288;2023-05-07T00:16:01;6.10;;;2.97;;
50393;SDS011;36308;46.312;25.288;2023-05-07T00:21:13;6.78;;;3.45;;
50393;SDS011;36308;46.312;25.288;2023-05-07T00:23:39;5.93;;;3.17;;
50393;SDS011;36308;46.312;25.288;2023-05-07T00:26:04;6.70;;;3.72;;
50393;SDS011;36308;46.312;25.288;2023-05-07T00:28:30;5.88;;;3.65;;
50393;SDS011;36308;46.312;25.288;2023-05-07T00:30:55;6.03;;;3.42;;
50393;SDS011;36308;46.312;25.288;2023-05-07T00:33:21;5.78;;;3.72;;
50393;SDS011;36308;46.312;25.288;2023-05-07T00:35:47;5.00;;;3.60;;
50393;SDS011;36308;46.312;25.288;2023-05-07T00:38:13;6.78;;;3.65;;
50393;SDS011;36308;46.312;25.288;2023-05-07T00:40:39;5.82;;;3.60;;
50393;SDS011;36308;46.312;25.288;2023-05-07T00:43:04;5.80;;;3.80;;
50393;SDS011;36308;46.312;25.288;2023-05-07T00:45:30;7.38;;;4.10;;
50393;SDS011;36308;46.312;25.288;2023-05-07T00:47:56;7.03;;;3.88;;
50393;SDS011;36308;46.312;25.288;2023-05-07T00:50:24;7.63;;;3.97;;
50393;SDS011;36308;46.312;25.288;2023-05-07T00:52:53;6.60;;;3.85;;
50393;SDS011;36308;46.312;25.288;2023-05-07T00:55:19;5.95;;;3.80;;
50393;SDS011;36308;46.312;25.288;2023-05-07T00:57:45;7.00;;;3.70;;
50393;SDS011;36308;46.312;25.288;2023-05-07T01:00:11;8.77;;;3.83;;
50393;SDS011;36308;46.312;25.288;2023-05-07T01:02:38;6.18;;;3.97;;
50393;SDS011;36308;46.312;25.288;2023-05-07T01:05:04;7.38;;;3.85;;
50393;SDS011;36308;46.312;25.288;2023-05-07T01:07:32;8.25;;;3.92;;
50393;SDS011;36308;46.312;25.288;2023-05-07T01:09:59;6.97;;;3.63;;
50393;SDS011;36308;46.312;25.288;2023-05-07T01:12:26;5.30;;;3.80;;
50393;SDS011;36308;46.312;25.288;2023-05-07T01:14:53;6.65;;;3.40;;
50393;SDS011;36308;46.312;25.288;2023-05-07T01:17:19;5.85;;;3.42;;
50393;SDS011;36308;46.312;25.288;2023-05-07T01:19:45;6.20;;;3.70;;
50393;SDS011;36308;46.312;25.288;2023-05-07T01:22:11;5.25;;;2.80;;
50393;SDS011;36308;46.312;25.288;2023-05-07T01:24:37;5.47;;;2.70;;
50393;SDS011;36308;46.312;25.288;2023-05-07T01:27:03;5.28;;;2.83;;
50393;SDS011;36308;46.312;25.288;2023-05-07T01:29:29;5.78;;;3.10;;
50393;SDS011;36308;46.312;25.288;2023-05-07T01:31:58;3.30;;;2.55;;
50393;SDS011;36308;46.312;25.288;2023-05-07T01:34:25;4.57;;;2.95;;
50393;SDS011;36308;46.312;25.288;2023-05-07T01:36:54;4.32;;;2.75;;
50393;SDS011;36308;46.312;25.288;2023-05-07T01:39:24;5.38;;;2.75;;
50393;SDS011;36308;46.312;25.288;2023-05-07T01:41:50;4.00;;;2.85;;
50393;SDS011;36308;46.312;25.288;2023-05-07T01:44:16;5.00;;;2.72;;
50393;SDS011;36308;46.312;25.288;2023-05-07T01:46:43;3.88;;;2.70;;
50393;SDS011;36308;46.312;25.288;2023-05-07T01:49:09;4.55;;;3.22;;
50393;SDS011;36308;46.312;25.288;2023-05-07T01:54:18;4.25;;;2.80;;
50393;SDS011;36308;46.312;25.288;2023-05-07T01:56:45;4.63;;;2.90;;
50393;SDS011;36308;46.312;25.288;2023-05-07T01:59:13;4.55;;;3.22;;
50393;SDS011;36308;46.312;25.288;2023-05-07T02:01:38;5.90;;;2.70;;
50393;SDS011;36308;46.312;25.288;2023-05-07T02:04:04;5.03;;;2.88;;
50393;SDS011;36308;46.312;25.288;2023-05-07T02:06:29;4.43;;;2.65;;
50393;SDS011;36308;46.312;25.288;2023-05-07T02:08:55;7.47;;;3.00;;
50393;SDS011;36308;46.312;25.288;2023-05-07T02:11:21;7.40;;;3.53;;
50393;SDS011;36308;46.312;25.288;2023-05-07T02:13:46;3.88;;;2.83;;
50393;SDS011;36308;46.312;25.288;2023-05-07T02:16:13;3.78;;;2.75;;
50393;SDS011;36308;46.312;25.288;2023-05-07T02:18:39;3.50;;;2.88;;
50393;SDS011;36308;46.312;25.288;2023-05-07T02:21:05;5.88;;;2.70;;
50393;SDS011;36308;46.312;25.288;2023-05-07T02:23:30;4.95;;;2.83;;
50393;SDS011;36308;46.312;25.288;2023-05-07T02:25:55;4.20;;;2.60;;
50393;SDS011;36308;46.312;25.288;2023-05-07T02:28:21;5.45;;;2.95;;
50393;SDS011;36308;46.312;25.288;2023-05-07T02:30:46;6.45;;;3.00;;
50393;SDS011;36308;46.312;25.288;2023-05-07T02:33:12;4.97;;;3.50;;
50393;SDS011;36308;46.312;25.288;2023-05-07T02:35:38;5.22;;;3.78;;
50393;SDS011;36308;46.312;25.288;2023-05-07T02:38:04;5.15;;;3.38;;
50393;SDS011;36308;46.312;25.288;2023-05-07T02:40:30;9.82;;;6.60;;
50393;SDS011;36308;46.312;25.288;2023-05-07T02:42:58;7.10;;;4.60;;
50393;SDS011;36308;46.312;25.288;2023-05-07T02:45:24;6.70;;;3.63;;
50393;SDS011;36308;46.312;25.288;2023-05-07T02:47:51;6.00;;;3.63;;
50393;SDS011;36308;46.312;25.288;2023-05-07T02:50:16;6.05;;;3.55;;
50393;SDS011;36308;46.312;25.288;2023-05-07T02:52:42;5.53;;;3.25;;
50393;SDS011;36308;46.312;25.288;2023-05-07T02:55:07;7.13;;;3.90;;
50393;SDS011;36308;46.312;25.288;2023-05-07T02:57:33;7.20;;;3.97;;
50393;SDS011;36308;46.312;25.288;2023-05-07T02:59:59;6.25;;;3.50;;
50393;SDS011;36308;46.312;25.288;2023-05-07T03:02:25;4.38;;;3.08;;
50393;SDS011;36308;46.312;25.288;2023-05-07T03:04:50;7.55;;;3.20;;
50393;SDS011;36308;46.312;25.288;2023-05-07T03:07:15;5.28;;;3.40;;
50393;SDS011;36308;46.312;25.288;2023-05-07T03:09:41;5.82;;;3.50;;
50393;SDS011;36308;46.312;25.288;2023-05-07T03:12:06;7.82;;;3.83;;
50393;SDS011;36308;46.312;25.288;2023-05-07T03:14:32;5.32;;;3.60;;
50393;SDS011;36308;46.312;25.288;2023-05-07T03:16:58;5.47;;;3.25;;
50393;SDS011;36308;46.312;25.288;2023-05-07T03:19:23;7.03;;;4.18;;
50393;SDS011;36308;46.312;25.288;2023-05-07T03:21:49;8.07;;;3.58;;
50393;SDS011;36308;46.312;25.288;2023-05-07T03:24:14;5.05;;;3.55;;
50393;SDS011;36308;46.312;25.288;2023-05-07T03:26:40;5.43;;;4.00;;
50393;SDS011;36308;46.312;25.288;2023-05-07T03:29:05;6.30;;;3.67;;
50393;SDS011;36308;46.312;25.288;2023-05-07T03:31:31;6.32;;;3.95;;
50393;SDS011;36308;46.312;25.288;2023-05-07T03:33:57;7.13;;;4.22;;
50393;SDS011;36308;46.312;25.288;2023-05-07T03:36:23;5.85;;;3.65;;
50393;SDS011;36308;46.312;25.288;2023-05-07T03:38:49;6.18;;;3.88;;
50393;SDS011;36308;46.312;25.288;2023-05-07T03:41:15;6.15;;;3.92;;
50393;SDS011;36308;46.312;25.288;2023-05-07T03:43:40;5.75;;;4.10;;
50393;SDS011;36308;46.312;25.288;2023-05-07T03:46:06;7.25;;;4.38;;
50393;SDS011;36308;46.312;25.288;2023-05-07T03:48:32;6.38;;;4.10;;
50393;SDS011;36308;46.312;25.288;2023-05-07T03:50:58;6.97;;;3.80;;
50393;SDS011;36308;46.312;25.288;2023-05-07T03:53:24;7.15;;;4.25;;
50393;SDS011;36308;46.312;25.288;2023-05-07T03:55:50;7.25;;;4.35;;
50393;SDS011;36308;46.312;25.288;2023-05-07T03:58:15;7.22;;;4.40;;
50393;SDS011;36308;46.312;25.288;2023-05-07T04:00:41;8.75;;;4.35;;
50393;SDS011;36308;46.312;25.288;2023-05-07T04:03:07;8.27;;;4.88;;
50393;SDS011;36308;46.312;25.288;2023-05-07T04:05:33;7.97;;;4.43;;
50393;SDS011;36308;46.312;25.288;2023-05-07T04:11:01;7.00;;;4.50;;
50393;SDS011;36308;46.312;25.288;2023-05-07T04:13:27;7.22;;;3.42;;
50393;SDS011;36308;46.312;25.288;2023-05-07T04:15:53;6.15;;;3.53;;
50393;SDS011;36308;46.312;25.288;2023-05-07T04:18:20;8.32;;;5.15;;
50393;SDS011;36308;46.312;25.288;2023-05-07T04:20:46;6.97;;;4.40;;
50393;SDS011;36308;46.312;25.288;2023-05-07T04:23:12;7.20;;;4.25;;
50393;SDS011;36308;46.312;25.288;2023-05-07T04:25:38;35.30;;;19.70;;
50393;SDS011;36308;46.312;25.288;2023-05-07T04:28:03;64.78;;;37.58;;
50393;SDS011;36308;46.312;25.288;2023-05-07T04:30:29;32.35;;;17.45;;
50393;SDS011;36308;46.312;25.288;2023-05-07T04:32:55;78.43;;;46.80;;
50393;SDS011;36308;46.312;25.288;2023-05-07T04:35:22;70.68;;;43.15;;
50393;SDS011;36308;46.312;25.288;2023-05-07T04:37:47;32.28;;;21.13;;
50393;SDS011;36308;46.312;25.288;2023-05-07T04:40:13;35.00;;;21.83;;
50393;SDS011;36308;46.312;25.288;2023-05-07T04:42:38;27.10;;;17.40;;
50393;SDS011;36308;46.312;25.288;2023-05-07T04:45:04;20.88;;;13.70;;
50393;SDS011;36308;46.312;25.288;2023-05-07T04:47:30;28.48;;;14.95;;
50393;SDS011;36308;46.312;25.288;2023-05-07T04:49:57;15.07;;;8.43;;
50393;SDS011;36308;46.312;25.288;2023-05-07T04:52:23;22.67;;;13.40;;
50393;SDS011;36308;46.312;25.288;2023-05-07T04:54:48;14.45;;;7.72;;
50393;SDS011;36308;46.312;25.288;2023-05-07T04:57:14;9.25;;;4.97;;
50393;SDS011;36308;46.312;25.288;2023-05-07T04:59:39;8.98;;;5.72;;
50393;SDS011;36308;46.312;25.288;2023-05-07T05:02:05;6.93;;;4.25;;
50393;SDS011;36308;46.312;25.288;2023-05-07T05:04:30;6.32;;;4.15;;
50393;SDS011;36308;46.312;25.288;2023-05-07T05:06:56;8.43;;;5.60;;
50393;SDS011;36308;46.312;25.288;2023-05-07T05:09:21;10.35;;;5.90;;
50393;SDS011;36308;46.312;25.288;2023-05-07T05:11:48;10.35;;;6.10;;
50393;SDS011;36308;46.312;25.288;2023-05-07T05:14:13;9.15;;;6.05;;
50393;SDS011;36308;46.312;25.288;2023-05-07T05:16:39;10.25;;;5.90;;
50393;SDS011;36308;46.312;25.288;2023-05-07T05:19:05;11.82;;;6.88;;
50393;SDS011;36308;46.312;25.288;2023-05-07T05:21:31;9.43;;;6.28;;
50393;SDS011;36308;46.312;25.288;2023-05-07T05:23:57;11.45;;;6.47;;
50393;SDS011;36308;46.312;25.288;2023-05-07T05:26:23;9.20;;;5.93;;
50393;SDS011;36308;46.312;25.288;2023-05-07T05:28:48;9.43;;;5.15;;
50393;SDS011;36308;46.312;25.288;2023-05-07T05:31:14;7.97;;;5.43;;
50393;SDS011;36308;46.312;25.288;2023-05-07T05:33:40;7.75;;;5.05;;
50393;SDS011;36308;46.312;25.288;2023-05-07T05:36:06;9.23;;;5.85;;
50393;SDS011;36308;46.312;25.288;2023-05-07T05:38:35;8.35;;;5.00;;
50393;SDS011;36308;46.312;25.288;2023-05-07T05:41:00;8.52;;;5.95;;
50393;SDS011;36308;46.312;25.288;2023-05-07T05:46:29;8.98;;;5.18;;
50393;SDS011;36308;46.312;25.288;2023-05-07T05:51:38;9.32;;;5.47;;
50393;SDS011;36308;46.312;25.288;2023-05-07T05:54:04;12.68;;;6.85;;
50393;SDS011;36308;46.312;25.288;2023-05-07T05:56:30;8.95;;;6.45;;
50393;SDS011;36308;46.312;25.288;2023-05-07T05:58:55;11.48;;;6.60;;
50393;SDS011;36308;46.312;25.288;2023-05-07T06:01:21;8.57;;;6.00;;
50393;SDS011;36308;46.312;25.288;2023-05-07T06:03:46;10.10;;;7.18;;
50393;SDS011;36308;46.312;25.288;2023-05-07T06:06:11;12.50;;;6.63;;
50393;SDS011;36308;46.312;25.288;2023-05-07T06:08:37;14.00;;;8.20;;
50393;SDS011;36308;46.312;25.288;2023-05-07T06:13:48;9.50;;;6.15;;
50393;SDS011;36308;46.312;25.288;2023-05-07T06:16:13;10.07;;;6.80;;
50393;SDS011;36308;46.312;25.288;2023-05-07T06:18:40;10.55;;;5.28;;
50393;SDS011;36308;46.312;25.288;2023-05-07T06:21:06;13.73;;;7.70;;
50393;SDS011;36308;46.312;25.288;2023-05-07T06:23:31;11.77;;;6.70;;
50393;SDS011;36308;46.312;25.288;2023-05-07T06:25:56;10.60;;;6.43;;
50393;SDS011;36308;46.312;25.288;2023-05-07T06:28:22;8.27;;;4.85;;
50393;SDS011;36308;46.312;25.288;2023-05-07T06:30:47;8.88;;;5.20;;
50393;SDS011;36308;46.312;25.288;2023-05-07T06:33:15;7.97;;;5.50;;
50393;SDS011;36308;46.312;25.288;2023-05-07T06:35:40;11.48;;;4.95;;
50393;SDS011;36308;46.312;25.288;2023-05-07T06:38:06;9.45;;;5.10;;
50393;SDS011;36308;46.312;25.288;2023-05-07T06:40:31;9.40;;;4.95;;
50393;SDS011;36308;46.312;25.288;2023-05-07T06:42:57;10.40;;;5.88;;
50393;SDS011;36308;46.312;25.288;2023-05-07T06:45:22;25.17;;;13.23;;
50393;SDS011;36308;46.312;25.288;2023-05-07T06:47:50;8.60;;;4.50;;
50393;SDS011;36308;46.312;25.288;2023-05-07T06:50:16;7.75;;;4.70;;
50393;SDS011;36308;46.312;25.288;2023-05-07T06:52:42;9.38;;;4.68;;
50393;SDS011;36308;46.312;25.288;2023-05-07T06:55:08;7.43;;;4.63;;
50393;SDS011;36308;46.312;25.288;2023-05-07T06:57:34;9.43;;;4.32;;
50393;SDS011;36308;46.312;25.288;2023-05-07T06:59:59;4.55;;;3.33;;
50393;SDS011;36308;46.312;25.288;2023-05-07T07:02:25;6.75;;;3.72;;
50393;SDS011;36308;46.312;25.288;2023-05-07T07:04:50;7.82;;;4.45;;
50393;SDS011;36308;46.312;25.288;2023-05-07T07:07:16;6.80;;;3.47;;
50393;SDS011;36308;46.312;25.288;2023-05-07T07:09:41;9.55;;;4.65;;
50393;SDS011;36308;46.312;25.288;2023-05-07T07:12:07;6.55;;;4.03;;
50393;SDS011;36308;46.312;25.288;2023-05-07T07:14:32;8.55;;;3.75;;
50393;SDS011;36308;46.312;25.288;2023-05-07T07:16:58;5.55;;;3.50;;
50393;SDS011;36308;46.312;25.288;2023-05-07T07:19:23;9.18;;;3.83;;
50393;SDS011;36308;46.312;25.288;2023-05-07T07:21:49;5.22;;;3.50;;
50393;SDS011;36308;46.312;25.288;2023-05-07T07:24:14;7.68;;;3.80;;
50393;SDS011;36308;46.312;25.288;2023-05-07T07:26:46;6.68;;;3.83;;
50393;SDS011;36308;46.312;25.288;2023-05-07T07:29:11;10.90;;;6.28;;
50393;SDS011;36308;46.312;25.288;2023-05-07T07:31:37;5.90;;;4.00;;
50393;SDS011;36308;46.312;25.288;2023-05-07T07:34:02;7.00;;;4.30;;
50393;SDS011;36308;46.312;25.288;2023-05-07T07:36:28;10.50;;;4.43;;
50393;SDS011;36308;46.312;25.288;2023-05-07T07:38:53;8.73;;;4.65;;
50393;SDS011;36308;46.312;25.288;2023-05-07T07:44:22;7.65;;;4.50;;
50393;SDS011;36308;46.312;25.288;2023-05-07T07:46:47;6.28;;;4.30;;
50393;SDS011;36308;46.312;25.288;2023-05-07T07:49:13;8.23;;;4.63;;
50393;SDS011;36308;46.312;25.288;2023-05-07T07:55:00;8.13;;;4.32;;
50393;SDS011;36308;46.312;25.288;2023-05-07T07:57:26;8.00;;;4.50;;
50393;SDS011;36308;46.312;25.288;2023-05-07T07:59:52;8.60;;;4.85;;
50393;SDS011;36308;46.312;25.288;2023-05-07T08:02:17;8.25;;;4.18;;
50393;SDS011;36308;46.312;25.288;2023-05-07T08:04:43;6.68;;;3.65;;
50393;SDS011;36308;46.312;25.288;2023-05-07T08:07:09;7.28;;;4.50;;
50393;SDS011;36308;46.312;25.288;2023-05-07T08:09:35;6.63;;;4.28;;
50393;SDS011;36308;46.312;25.288;2023-05-07T08:12:02;7.60;;;3.63;;
50393;SDS011;36308;46.312;25.288;2023-05-07T08:14:28;7.60;;;4.68;;
50393;SDS011;36308;46.312;25.288;2023-05-07T08:16:54;10.57;;;5.05;;
50393;SDS011;36308;46.312;25.288;2023-05-07T08:19:20;9.45;;;5.00;;
50393;SDS011;36308;46.312;25.288;2023-05-07T08:21:46;6.90;;;4.55;;
50393;SDS011;36308;46.312;25.288;2023-05-07T08:24:15;8.25;;;5.28;;
50393;SDS011;36308;46.312;25.288;2023-05-07T08:26:41;6.80;;;4.55;;
50393;SDS011;36308;46.312;25.288;2023-05-07T08:29:07;6.53;;;4.55;;
50393;SDS011;36308;46.312;25.288;2023-05-07T08:31:33;9.85;;;5.20;;
50393;SDS011;36308;46.312;25.288;2023-05-07T08:33:58;7.45;;;4.50;;
50393;SDS011;36308;46.312;25.288;2023-05-07T08:36:25;6.68;;;4.10;;
50393;SDS011;36308;46.312;25.288;2023-05-07T08:38:51;9.07;;;4.80;;
50393;SDS011;36308;46.312;25.288;2023-05-07T08:41:16;8.77;;;4.53;;
50393;SDS011;36308;46.312;25.288;2023-05-07T08:43:42;6.20;;;3.25;;
50393;SDS011;36308;46.312;25.288;2023-05-07T08:46:19;5.93;;;3.22;;
50393;SDS011;36308;46.312;25.288;2023-05-07T08:48:48;9.32;;;6.05;;
50393;SDS011;36308;46.312;25.288;2023-05-07T08:51:18;5.97;;;3.97;;
50393;SDS011;36308;46.312;25.288;2023-05-07T08:53:45;4.53;;;3.22;;
50393;SDS011;36308;46.312;25.288;2023-05-07T08:56:14;19.70;;;10.50;;
50393;SDS011;36308;46.312;25.288;2023-05-07T09:01:25;5.93;;;3.28;;
50393;SDS011;36308;46.312;25.288;2023-05-07T09:03:51;4.50;;;3.22;;
50393;SDS011;36308;46.312;25.288;2023-05-07T09:06:18;5.85;;;3.05;;
50393;SDS011;36308;46.312;25.288;2023-05-07T09:08:50;5.68;;;2.90;;
50393;SDS011;36308;46.312;25.288;2023-05-07T09:11:19;9.68;;;4.97;;
50393;SDS011;36308;46.312;25.288;2023-05-07T09:13:48;6.40;;;3.40;;
50393;SDS011;36308;46.312;25.288;2023-05-07T09:16:18;5.53;;;3.30;;
50393;SDS011;36308;46.312;25.288;2023-05-07T09:18:46;4.00;;;2.80;;
50393;SDS011;36308;46.312;25.288;2023-05-07T09:21:16;4.03;;;2.58;;
50393;SDS011;36308;46.312;25.288;2023-05-07T09:23:42;5.13;;;2.60;;
50393;SDS011;36308;46.312;25.288;2023-05-07T09:26:07;5.35;;;2.72;;
50393;SDS011;36308;46.312;25.288;2023-05-07T09:28:39;4.22;;;2.63;;
50393;SDS011;36308;46.312;25.288;2023-05-07T09:31:09;3.22;;;2.67;;
50393;SDS011;36308;46.312;25.288;2023-05-07T09:33:35;12.38;;;10.75;;
50393;SDS011;36308;46.312;25.288;2023-05-07T09:36:05;5.20;;;3.00;;
50393;SDS011;36308;46.312;25.288;2023-05-07T09:38:32;5.85;;;3.33;;
50393;SDS011;36308;46.312;25.288;2023-05-07T09:41:05;7.38;;;4.15;;
50393;SDS011;36308;46.312;25.288;2023-05-07T09:43:31;9.15;;;4.05;;
50393;SDS011;36308;46.312;25.288;2023-05-07T09:46:00;7.32;;;3.10;;
50393;SDS011;36308;46.312;25.288;2023-05-07T09:48:28;6.82;;;3.00;;
50393;SDS011;36308;46.312;25.288;2023-05-07T09:50:55;6.68;;;3.22;;
50393;SDS011;36308;46.312;25.288;2023-05-07T09:53:23;4.63;;;3.53;;
50393;SDS011;36308;46.312;25.288;2023-05-07T09:55:50;8.48;;;3.75;;
50393;SDS011;36308;46.312;25.288;2023-05-07T09:58:17;4.75;;;3.10;;
50393;SDS011;36308;46.312;25.288;2023-05-07T10:00:43;4.43;;;3.00;;
50393;SDS011;36308;46.312;25.288;2023-05-07T10:03:10;3.25;;;2.53;;
50393;SDS011;36308;46.312;25.288;2023-05-07T10:05:37;5.70;;;2.90;;
50393;SDS011;36308;46.312;25.288;2023-05-07T10:08:04;4.32;;;3.20;;
50393;SDS011;36308;46.312;25.288;2023-05-07T10:10:32;3.38;;;2.72;;
50393;SDS011;36308;46.312;25.288;2023-05-07T10:12:59;4.40;;;3.10;;
50393;SDS011;36308;46.312;25.288;2023-05-07T10:15:26;5.72;;;3.15;;
50393;SDS011;36308;46.312;25.288;2023-05-07T10:17:53;3.28;;;2.83;;
50393;SDS011;36308;46.312;25.288;2023-05-07T10:20:20;5.60;;;3.10;;
50393;SDS011;36308;46.312;25.288;2023-05-07T10:22:48;6.93;;;3.00;;
50393;SDS011;36308;46.312;25.288;2023-05-07T10:25:19;4.00;;;3.38;;
50393;SDS011;36308;46.312;25.288;2023-05-07T10:27:48;4.93;;;3.10;;
50393;SDS011;36308;46.312;25.288;2023-05-07T10:33:15;4.57;;;2.80;;
50393;SDS011;36308;46.312;25.288;2023-05-07T10:35:45;4.35;;;2.90;;
50393;SDS011;36308;46.312;25.288;2023-05-07T10:38:12;5.65;;;3.63;;
50393;SDS011;36308;46.312;25.288;2023-05-07T10:40:38;5.32;;;3.08;;
50393;SDS011;36308;46.312;25.288;2023-05-07T10:43:04;4.78;;;3.35;;
50393;SDS011;36308;46.312;25.288;2023-05-07T10:45:31;5.68;;;3.75;;
50393;SDS011;36308;46.312;25.288;2023-05-07T10:48:06;7.53;;;3.92;;
50393;SDS011;36308;46.312;25.288;2023-05-07T10:50:33;6.85;;;3.38;;
50393;SDS011;36308;46.312;25.288;2023-05-07T11:00:46;5.00;;;3.95;;
50393;SDS011;36308;46.312;25.288;2023-05-07T11:03:12;6.07;;;3.65;;
50393;SDS011;36308;46.312;25.288;2023-05-07T11:05:39;6.93;;;4.65;;
50393;SDS011;36308;46.312;25.288;2023-05-07T11:08:05;6.85;;;3.33;;
50393;SDS011;36308;46.312;25.288;2023-05-07T11:10:50;5.53;;;2.97;;
50393;SDS011;36308;46.312;25.288;2023-05-07T11:16:18;4.03;;;3.03;;
50393;SDS011;36308;46.312;25.288;2023-05-07T11:18:46;4.55;;;3.05;;
50393;SDS011;36308;46.312;25.288;2023-05-07T11:21:37;5.28;;;2.95;;
50393;SDS011;36308;46.312;25.288;2023-05-07T11:24:04;4.57;;;2.80;;
50393;SDS011;36308;46.312;25.288;2023-05-07T11:26:41;3.90;;;2.80;;
50393;SDS011;36308;46.312;25.288;2023-05-07T11:29:17;3.63;;;2.63;;
50393;SDS011;36308;46.312;25.288;2023-05-07T11:31:44;3.28;;;2.65;;
50393;SDS011;36308;46.312;25.288;2023-05-07T11:34:14;4.63;;;2.65;;
50393;SDS011;36308;46.312;25.288;2023-05-07T11:36:45;4.88;;;2.75;;
50393;SDS011;36308;46.312;25.288;2023-05-07T11:39:29;4.00;;;3.05;;
50393;SDS011;36308;46.312;25.288;2023-05-07T11:42:00;6.65;;;2.97;;
50393;SDS011;36308;46.312;25.288;2023-05-07T11:44:42;6.28;;;3.47;;
50393;SDS011;36308;46.312;25.288;2023-05-07T11:47:10;4.10;;;3.00;;
50393;SDS011;36308;46.312;25.288;2023-05-07T11:49:36;5.90;;;3.28;;
50393;SDS011;36308;46.312;25.288;2023-05-07T11:52:01;4.07;;;3.05;;
50393;SDS011;36308;46.312;25.288;2023-05-07T11:54:34;5.10;;;3.10;;
50393;SDS011;36308;46.312;25.288;2023-05-07T11:57:00;4.15;;;3.00;;
50393;SDS011;36308;46.312;25.288;2023-05-07T11:59:26;3.22;;;2.90;;
50393;SDS011;36308;46.312;25.288;2023-05-07T12:01:51;3.92;;;2.90;;
50393;SDS011;36308;46.312;25.288;2023-05-07T12:04:19;5.75;;;3.33;;
50393;SDS011;36308;46.312;25.288;2023-05-07T12:06:45;3.03;;;2.47;;
50393;SDS011;36308;46.312;25.288;2023-05-07T12:09:11;5.25;;;2.90;;
50393;SDS011;36308;46.312;25.288;2023-05-07T12:11:36;4.82;;;3.28;;
50393;SDS011;36308;46.312;25.288;2023-05-07T12:14:04;3.53;;;2.83;;
50393;SDS011;36308;46.312;25.288;2023-05-07T12:16:30;4.57;;;3.42;;
50393;SDS011;36308;46.312;25.288;2023-05-07T12:18:56;4.35;;;3.08;;
50393;SDS011;36308;46.312;25.288;2023-05-07T12:21:23;3.15;;;2.85;;
50393;SDS011;36308;46.312;25.288;2023-05-07T12:23:50;3.80;;;3.28;;
50393;SDS011;36308;46.312;25.288;2023-05-07T12:26:15;4.03;;;2.97;;
50393;SDS011;36308;46.312;25.288;2023-05-07T12:28:41;5.25;;;3.50;;
50393;SDS011;36308;46.312;25.288;2023-05-07T12:31:07;5.18;;;3.30;;
50393;SDS011;36308;46.312;25.288;2023-05-07T12:33:33;4.78;;;3.58;;
50393;SDS011;36308;46.312;25.288;2023-05-07T12:36:02;4.05;;;3.42;;
50393;SDS011;36308;46.312;25.288;2023-05-07T12:38:32;4.53;;;3.55;;
50393;SDS011;36308;46.312;25.288;2023-05-07T12:41:00;4.22;;;3.30;;
50393;SDS011;36308;46.312;25.288;2023-05-07T12:43:26;5.85;;;3.42;;
50393;SDS011;36308;46.312;25.288;2023-05-07T12:45:54;6.45;;;4.25;;
50393;SDS011;36308;46.312;25.288;2023-05-07T12:48:21;5.05;;;4.10;;
50393;SDS011;36308;46.312;25.288;2023-05-07T12:53:50;4.53;;;3.78;;
50393;SDS011;36308;46.312;25.288;2023-05-07T12:56:21;6.20;;;4.60;;
50393;SDS011;36308;46.312;25.288;2023-05-07T13:01:33;4.75;;;3.50;;
50393;SDS011;36308;46.312;25.288;2023-05-07T13:04:05;4.00;;;3.15;;
50393;SDS011;36308;46.312;25.288;2023-05-07T13:09:15;4.47;;;3.50;;
50393;SDS011;36308;46.312;25.288;2023-05-07T13:11:40;3.70;;;2.97;;
50393;SDS011;36308;46.312;25.288;2023-05-07T13:14:06;5.03;;;3.28;;
50393;SDS011;36308;46.312;25.288;2023-05-07T13:16:31;6.25;;;3.80;;
50393;SDS011;36308;46.312;25.288;2023-05-07T13:18:56;3.95;;;3.17;;
50393;SDS011;36308;46.312;25.288;2023-05-07T13:21:22;4.13;;;3.50;;
50393;SDS011;36308;46.312;25.288;2023-05-07T13:23:47;5.60;;;3.97;;
50393;SDS011;36308;46.312;25.288;2023-05-07T13:26:13;7.95;;;5.10;;
50393;SDS011;36308;46.312;25.288;2023-05-07T13:28:39;10.90;;;7.50;;
50393;SDS011;36308;46.312;25.288;2023-05-07T13:31:04;11.98;;;7.35;;
50393;SDS011;36308;46.312;25.288;2023-05-07T13:33:29;9.23;;;6.80;;
50393;SDS011;36308;46.312;25.288;2023-05-07T13:35:55;9.55;;;7.10;;
50393;SDS011;36308;46.312;25.288;2023-05-07T13:38:22;7.10;;;4.90;;
50393;SDS011;36308;46.312;25.288;2023-05-07T13:40:47;10.73;;;7.55;;
50393;SDS011;36308;46.312;25.288;2023-05-07T13:43:13;11.50;;;7.03;;
50393;SDS011;36308;46.312;25.288;2023-05-07T13:45:39;9.48;;;7.10;;
50393;SDS011;36308;46.312;25.288;2023-05-07T13:48:05;8.48;;;7.40;;
50393;SDS011;36308;46.312;25.288;2023-05-07T13:50:30;7.75;;;5.78;;
50393;SDS011;36308;46.312;25.288;2023-05-07T13:52:56;10.43;;;5.95;;
50393;SDS011;36308;46.312;25.288;2023-05-07T13:55:22;7.75;;;5.90;;
50393;SDS011;36308;46.312;25.288;2023-05-07T13:57:54;8.98;;;6.80;;
50393;SDS011;36308;46.312;25.288;2023-05-07T14:00:21;7.63;;;6.03;;
50393;SDS011;36308;46.312;25.288;2023-05-07T14:02:47;8.43;;;5.72;;
50393;SDS011;36308;46.312;25.288;2023-05-07T14:05:13;11.00;;;8.27;;
50393;SDS011;36308;46.312;25.288;2023-05-07T14:07:38;13.55;;;11.75;;
50393;SDS011;36308;46.312;25.288;2023-05-07T14:10:04;13.40;;;9.30;;
50393;SDS011;36308;46.312;25.288;2023-05-07T14:12:31;7.20;;;4.85;;
50393;SDS011;36308;46.312;25.288;2023-05-07T14:14:57;6.90;;;3.95;;
50393;SDS011;36308;46.312;25.288;2023-05-07T14:17:23;7.35;;;4.30;;
50393;SDS011;36308;46.312;25.288;2023-05-07T14:19:51;11.25;;;5.75;;
50393;SDS011;36308;46.312;25.288;2023-05-07T14:22:19;19.88;;;13.90;;
50393;SDS011;36308;46.312;25.288;2023-05-07T14:24:48;29.27;;;22.95;;
50393;SDS011;36308;46.312;25.288;2023-05-07T14:27:14;19.45;;;15.55;;
50393;SDS011;36308;46.312;25.288;2023-05-07T14:29:40;27.05;;;17.70;;
50393;SDS011;36308;46.312;25.288;2023-05-07T14:32:07;21.42;;;15.18;;
50393;SDS011;36308;46.312;25.288;2023-05-07T14:37:54;7.78;;;5.88;;
50393;SDS011;36308;46.312;25.288;2023-05-07T14:40:20;8.57;;;6.60;;
50393;SDS011;36308;46.312;25.288;2023-05-07T14:42:46;8.40;;;5.68;;
50393;SDS011;36308;46.312;25.288;2023-05-07T14:45:11;7.47;;;3.95;;
50393;SDS011;36308;46.312;25.288;2023-05-07T14:47:37;8.75;;;4.40;;
50393;SDS011;36308;46.312;25.288;2023-05-07T14:53:23;11.18;;;5.20;;
50393;SDS011;36308;46.312;25.288;2023-05-07T14:55:49;8.80;;;4.85;;
50393;SDS011;36308;46.312;25.288;2023-05-07T14:58:15;9.48;;;3.75;;
50393;SDS011;36308;46.312;25.288;2023-05-07T15:00:40;8.25;;;3.58;;
50393;SDS011;36308;46.312;25.288;2023-05-07T15:03:07;6.60;;;3.58;;
50393;SDS011;36308;46.312;25.288;2023-05-07T15:05:35;9.45;;;3.80;;
50393;SDS011;36308;46.312;25.288;2023-05-07T15:08:01;3.72;;;3.17;;
50393;SDS011;36308;46.312;25.288;2023-05-07T15:10:26;4.70;;;3.38;;
50393;SDS011;36308;46.312;25.288;2023-05-07T15:12:52;4.47;;;3.17;;
50393;SDS011;36308;46.312;25.288;2023-05-07T15:15:18;8.13;;;5.10;;
50393;SDS011;36308;46.312;25.288;2023-05-07T15:17:43;6.70;;;4.70;;
50393;SDS011;36308;46.312;25.288;2023-05-07T15:20:09;7.60;;;5.18;;
50393;SDS011;36308;46.312;25.288;2023-05-07T15:25:18;4.80;;;3.63;;
50393;SDS011;36308;46.312;25.288;2023-05-07T15:27:44;7.18;;;4.10;;